sensor_id;sensor_type;location;lat;lon;timestamp;P1;durP1;ratioP1;P2;durP2;ratioP2
71806;SDS011;59655;42.590;23.364;2023-05-07T00:00:17;8.18;;;4.18;;
71806;SDS011;59655;42.590;23.364;2023-05-07T00:02:44;7.72;;;4.28;;
71806;SDS011;59655;42.590;23.364;2023-05-07T00:05:10;9.80;;;4.80;;
71806;SDS011;59655;42.590;23.364;2023-05-07T00:07:35;6.95;;;4.25;;
71806;SDS011;59655;42.590;23.364;2023-05-07T00:10:01;6.63;;;3.75;;
71806;SDS011;59655;42.590;23.364;2023-05-07T00:12:27;5.32;;;3.75;;
71806;SDS011;59655;42.590;23.364;2023-05-07T00:14:52;7.00;;;4.15;;
71806;SDS011;59655;42.590;23.364;2023-05-07T00:17:18;6.82;;;3.92;;
71806;SDS011;59655;42.590;23.364;2023-05-07T00:19:43;6.18;;;3.80;;
71806;SDS011;59655;42.590;23.364;2023-05-07T00:22:09;7.32;;;4.18;;
71806;SDS011;59655;42.590;23.364;2023-05-07T00:24:35;7.40;;;4.35;;
71806;SDS011;59655;42.590;23.364;2023-05-07T00:27:00;6.85;;;4.03;;
71806;SDS011;59655;42.590;23.364;2023-05-07T00:29:26;6.32;;;3.58;;
71806;SDS011;59655;42.590;23.364;2023-05-07T00:31:51;5.70;;;3.78;;
71806;SDS011;59655;42.590;23.364;2023-05-07T00:34:18;6.57;;;3.63;;
71806;SDS011;59655;42.590;23.364;2023-05-07T00:36:45;8.52;;;4.20;;
71806;SDS011;59655;42.590;23.364;2023-05-07T00:39:10;9.98;;;4.55;;
71806;SDS011;59655;42.590;23.364;2023-05-07T00:41:36;8.27;;;4.68;;
71806;SDS011;59655;42.590;23.364;2023-05-07T00:44:01;9.32;;;5.65;;
71806;SDS011;59655;42.590;23.364;2023-05-07T00:46:27;8.43;;;4.70;;
71806;SDS011;59655;42.590;23.364;2023-05-07T00:48:53;9.43;;;4.70;;
71806;SDS011;59655;42.590;23.364;2023-05-07T00:51:19;10.95;;;4.78;;
71806;SDS011;59655;42.590;23.364;2023-05-07T00:53:45;8.15;;;4.50;;
71806;SDS011;59655;42.590;23.364;2023-05-07T00:56:11;8.43;;;4.15;;
71806;SDS011;59655;42.590;23.364;2023-05-07T00:58:37;8.18;;;4.10;;
71806;SDS011;59655;42.590;23.364;2023-05-07T01:01:02;8.35;;;4.18;;
71806;SDS011;59655;42.590;23.364;2023-05-07T01:03:28;6.05;;;4.03;;
71806;SDS011;59655;42.590;23.364;2023-05-07T01:05:54;6.60;;;3.95;;
71806;SDS011;59655;42.590;23.364;2023-05-07T01:08:22;10.50;;;4.05;;
71806;SDS011;59655;42.590;23.364;2023-05-07T01:10:51;8.73;;;4.15;;
71806;SDS011;59655;42.590;23.364;2023-05-07T01:13:17;8.70;;;4.57;;
71806;SDS011;59655;42.590;23.364;2023-05-07T01:15:44;7.63;;;4.65;;
71806;SDS011;59655;42.590;23.364;2023-05-07T01:18:10;7.20;;;4.20;;
71806;SDS011;59655;42.590;23.364;2023-05-07T01:20:35;7.68;;;4.32;;
71806;SDS011;59655;42.590;23.364;2023-05-07T01:23:01;7.53;;;4.40;;
71806;SDS011;59655;42.590;23.364;2023-05-07T01:25:28;7.97;;;4.85;;
71806;SDS011;59655;42.590;23.364;2023-05-07T01:27:54;10.18;;;4.85;;
71806;SDS011;59655;42.590;23.364;2023-05-07T01:30:20;9.57;;;5.70;;
71806;SDS011;59655;42.590;23.364;2023-05-07T01:32:51;10.85;;;5.57;;
71806;SDS011;59655;42.590;23.364;2023-05-07T01:35:22;9.07;;;5.43;;
71806;SDS011;59655;42.590;23.364;2023-05-07T01:37:52;8.88;;;4.78;;
71806;SDS011;59655;42.590;23.364;2023-05-07T01:40:18;11.13;;;5.38;;
71806;SDS011;59655;42.590;23.364;2023-05-07T01:42:43;8.77;;;5.30;;
71806;SDS011;59655;42.590;23.364;2023-05-07T01:45:10;8.82;;;5.70;;
71806;SDS011;59655;42.590;23.364;2023-05-07T01:47:37;8.73;;;5.50;;
71806;SDS011;59655;42.590;23.364;2023-05-07T01:50:03;7.97;;;5.28;;
71806;SDS011;59655;42.590;23.364;2023-05-07T01:52:31;14.38;;;6.22;;
71806;SDS011;59655;42.590;23.364;2023-05-07T01:54:56;8.48;;;5.10;;
71806;SDS011;59655;42.590;23.364;2023-05-07T01:57:22;10.05;;;5.50;;
71806;SDS011;59655;42.590;23.364;2023-05-07T01:59:47;9.88;;;5.20;;
71806;SDS011;59655;42.590;23.364;2023-05-07T02:02:13;7.22;;;4.97;;
71806;SDS011;59655;42.590;23.364;2023-05-07T02:04:38;8.35;;;4.32;;
71806;SDS011;59655;42.590;23.364;2023-05-07T02:07:03;7.82;;;4.40;;
71806;SDS011;59655;42.590;23.364;2023-05-07T02:09:29;7.57;;;4.63;;
71806;SDS011;59655;42.590;23.364;2023-05-07T02:11:55;7.57;;;4.68;;
71806;SDS011;59655;42.590;23.364;2023-05-07T02:14:20;7.03;;;4.95;;
71806;SDS011;59655;42.590;23.364;2023-05-07T02:16:45;7.80;;;5.30;;
71806;SDS011;59655;42.590;23.364;2023-05-07T02:19:11;11.32;;;4.78;;
71806;SDS011;59655;42.590;23.364;2023-05-07T02:21:36;10.15;;;4.85;;
71806;SDS011;59655;42.590;23.364;2023-05-07T02:24:02;7.38;;;4.78;;
71806;SDS011;59655;42.590;23.364;2023-05-07T02:26:27;8.85;;;5.03;;
71806;SDS011;59655;42.590;23.364;2023-05-07T02:28:53;8.85;;;5.70;;
71806;SDS011;59655;42.590;23.364;2023-05-07T02:31:18;9.45;;;5.43;;
71806;SDS011;59655;42.590;23.364;2023-05-07T02:33:44;6.45;;;4.75;;
71806;SDS011;59655;42.590;23.364;2023-05-07T02:36:10;7.70;;;4.65;;
71806;SDS011;59655;42.590;23.364;2023-05-07T02:38:37;6.88;;;4.63;;
71806;SDS011;59655;42.590;23.364;2023-05-07T02:41:04;10.38;;;5.28;;
71806;SDS011;59655;42.590;23.364;2023-05-07T02:43:29;10.18;;;4.93;;
71806;SDS011;59655;42.590;23.364;2023-05-07T02:46:05;10.13;;;5.28;;
71806;SDS011;59655;42.590;23.364;2023-05-07T02:48:31;10.13;;;5.70;;
71806;SDS011;59655;42.590;23.364;2023-05-07T02:50:57;9.38;;;5.03;;
71806;SDS011;59655;42.590;23.364;2023-05-07T02:53:23;8.65;;;4.80;;
71806;SDS011;59655;42.590;23.364;2023-05-07T02:55:51;8.43;;;4.45;;
71806;SDS011;59655;42.590;23.364;2023-05-07T02:58:23;8.80;;;5.13;;
71806;SDS011;59655;42.590;23.364;2023-05-07T03:00:49;13.10;;;5.70;;
71806;SDS011;59655;42.590;23.364;2023-05-07T03:03:15;8.07;;;5.30;;
71806;SDS011;59655;42.590;23.364;2023-05-07T03:05:40;11.57;;;5.22;;
71806;SDS011;59655;42.590;23.364;2023-05-07T03:08:06;9.93;;;5.82;;
71806;SDS011;59655;42.590;23.364;2023-05-07T03:10:32;11.73;;;5.57;;
71806;SDS011;59655;42.590;23.364;2023-05-07T03:12:58;10.38;;;5.43;;
71806;SDS011;59655;42.590;23.364;2023-05-07T03:15:23;11.00;;;6.03;;
71806;SDS011;59655;42.590;23.364;2023-05-07T03:17:49;10.95;;;6.32;;
71806;SDS011;59655;42.590;23.364;2023-05-07T03:20:14;9.00;;;5.60;;
71806;SDS011;59655;42.590;23.364;2023-05-07T03:22:40;9.77;;;6.18;;
71806;SDS011;59655;42.590;23.364;2023-05-07T03:25:06;8.18;;;5.18;;
71806;SDS011;59655;42.590;23.364;2023-05-07T03:27:32;13.45;;;6.10;;
71806;SDS011;59655;42.590;23.364;2023-05-07T03:29:58;11.13;;;5.68;;
71806;SDS011;59655;42.590;23.364;2023-05-07T03:32:23;10.02;;;5.35;;
71806;SDS011;59655;42.590;23.364;2023-05-07T03:34:49;8.50;;;5.38;;
71806;SDS011;59655;42.590;23.364;2023-05-07T03:37:14;7.63;;;5.13;;
71806;SDS011;59655;42.590;23.364;2023-05-07T03:39:39;9.07;;;5.40;;
71806;SDS011;59655;42.590;23.364;2023-05-07T03:42:05;9.98;;;5.75;;
71806;SDS011;59655;42.590;23.364;2023-05-07T03:44:33;9.52;;;5.72;;
71806;SDS011;59655;42.590;23.364;2023-05-07T03:47:00;11.85;;;5.55;;
71806;SDS011;59655;42.590;23.364;2023-05-07T03:49:25;12.27;;;5.80;;
71806;SDS011;59655;42.590;23.364;2023-05-07T03:51:50;9.40;;;5.60;;
71806;SDS011;59655;42.590;23.364;2023-05-07T03:54:16;11.18;;;5.72;;
71806;SDS011;59655;42.590;23.364;2023-05-07T03:56:41;11.25;;;6.13;;
71806;SDS011;59655;42.590;23.364;2023-05-07T03:59:07;8.77;;;4.90;;
71806;SDS011;59655;42.590;23.364;2023-05-07T04:01:32;10.68;;;5.80;;
71806;SDS011;59655;42.590;23.364;2023-05-07T04:03:58;10.20;;;5.75;;
71806;SDS011;59655;42.590;23.364;2023-05-07T04:06:25;13.57;;;7.60;;
71806;SDS011;59655;42.590;23.364;2023-05-07T04:08:50;16.85;;;8.23;;
71806;SDS011;59655;42.590;23.364;2023-05-07T04:11:16;13.50;;;7.13;;
71806;SDS011;59655;42.590;23.364;2023-05-07T04:13:41;13.13;;;6.63;;
71806;SDS011;59655;42.590;23.364;2023-05-07T04:16:07;11.23;;;6.68;;
71806;SDS011;59655;42.590;23.364;2023-05-07T04:18:33;9.57;;;6.65;;
71806;SDS011;59655;42.590;23.364;2023-05-07T04:20:58;9.98;;;7.20;;
71806;SDS011;59655;42.590;23.364;2023-05-07T04:23:24;10.70;;;7.07;;
71806;SDS011;59655;42.590;23.364;2023-05-07T04:25:49;11.43;;;7.20;;
71806;SDS011;59655;42.590;23.364;2023-05-07T04:28:15;11.35;;;7.63;;
71806;SDS011;59655;42.590;23.364;2023-05-07T04:30:40;11.07;;;6.95;;
71806;SDS011;59655;42.590;23.364;2023-05-07T04:33:06;12.30;;;7.47;;
71806;SDS011;59655;42.590;23.364;2023-05-07T04:35:32;12.23;;;7.93;;
71806;SDS011;59655;42.590;23.364;2023-05-07T04:37:57;11.50;;;8.02;;
71806;SDS011;59655;42.590;23.364;2023-05-07T04:40:23;13.45;;;8.45;;
71806;SDS011;59655;42.590;23.364;2023-05-07T04:42:48;14.10;;;8.88;;
71806;SDS011;59655;42.590;23.364;2023-05-07T04:45:14;16.02;;;9.50;;
71806;SDS011;59655;42.590;23.364;2023-05-07T04:47:40;14.85;;;9.88;;
71806;SDS011;59655;42.590;23.364;2023-05-07T04:50:06;17.00;;;9.43;;
71806;SDS011;59655;42.590;23.364;2023-05-07T04:52:32;14.18;;;9.23;;
71806;SDS011;59655;42.590;23.364;2023-05-07T04:55:01;17.48;;;9.90;;
71806;SDS011;59655;42.590;23.364;2023-05-07T04:57:28;15.35;;;9.65;;
71806;SDS011;59655;42.590;23.364;2023-05-07T04:59:53;15.18;;;10.05;;
71806;SDS011;59655;42.590;23.364;2023-05-07T05:02:19;18.10;;;10.27;;
71806;SDS011;59655;42.590;23.364;2023-05-07T05:04:44;15.70;;;9.50;;
71806;SDS011;59655;42.590;23.364;2023-05-07T05:07:10;16.88;;;9.60;;
71806;SDS011;59655;42.590;23.364;2023-05-07T05:09:35;15.63;;;10.05;;
71806;SDS011;59655;42.590;23.364;2023-05-07T05:12:01;16.33;;;9.55;;
71806;SDS011;59655;42.590;23.364;2023-05-07T05:14:26;18.77;;;10.07;;
71806;SDS011;59655;42.590;23.364;2023-05-07T05:16:51;16.58;;;9.63;;
71806;SDS011;59655;42.590;23.364;2023-05-07T05:19:17;16.65;;;9.45;;
71806;SDS011;59655;42.590;23.364;2023-05-07T05:21:42;17.20;;;10.02;;
71806;SDS011;59655;42.590;23.364;2023-05-07T05:24:08;14.30;;;8.85;;
71806;SDS011;59655;42.590;23.364;2023-05-07T05:26:34;14.07;;;8.65;;
71806;SDS011;59655;42.590;23.364;2023-05-07T05:28:59;15.77;;;8.63;;
71806;SDS011;59655;42.590;23.364;2023-05-07T05:31:25;14.13;;;8.68;;
71806;SDS011;59655;42.590;23.364;2023-05-07T05:33:50;14.95;;;8.52;;
71806;SDS011;59655;42.590;23.364;2023-05-07T05:36:16;12.95;;;8.10;;
71806;SDS011;59655;42.590;23.364;2023-05-07T05:38:41;9.30;;;6.78;;
71806;SDS011;59655;42.590;23.364;2023-05-07T05:41:07;12.52;;;7.95;;
71806;SDS011;59655;42.590;23.364;2023-05-07T05:43:32;11.18;;;7.10;;
71806;SDS011;59655;42.590;23.364;2023-05-07T05:45:58;12.25;;;7.47;;
71806;SDS011;59655;42.590;23.364;2023-05-07T05:48:24;12.25;;;7.00;;
71806;SDS011;59655;42.590;23.364;2023-05-07T05:50:49;11.48;;;7.53;;
71806;SDS011;59655;42.590;23.364;2023-05-07T05:53:14;12.75;;;6.97;;
71806;SDS011;59655;42.590;23.364;2023-05-07T05:55:41;12.25;;;7.47;;
71806;SDS011;59655;42.590;23.364;2023-05-07T05:58:06;15.15;;;8.45;;
71806;SDS011;59655;42.590;23.364;2023-05-07T06:00:32;16.08;;;8.45;;
71806;SDS011;59655;42.590;23.364;2023-05-07T06:02:57;13.13;;;7.75;;
71806;SDS011;59655;42.590;23.364;2023-05-07T06:05:23;15.98;;;8.02;;
71806;SDS011;59655;42.590;23.364;2023-05-07T06:07:48;14.20;;;7.70;;
71806;SDS011;59655;42.590;23.364;2023-05-07T06:10:13;15.05;;;7.40;;
71806;SDS011;59655;42.590;23.364;2023-05-07T06:12:39;17.63;;;8.48;;
71806;SDS011;59655;42.590;23.364;2023-05-07T06:15:05;17.77;;;8.57;;
71806;SDS011;59655;42.590;23.364;2023-05-07T06:17:30;16.23;;;7.95;;
71806;SDS011;59655;42.590;23.364;2023-05-07T06:19:56;14.20;;;8.05;;
71806;SDS011;59655;42.590;23.364;2023-05-07T06:22:21;14.23;;;8.85;;
71806;SDS011;59655;42.590;23.364;2023-05-07T06:24:47;16.95;;;8.50;;
71806;SDS011;59655;42.590;23.364;2023-05-07T06:27:13;16.63;;;7.80;;
71806;SDS011;59655;42.590;23.364;2023-05-07T06:29:38;13.98;;;9.63;;
71806;SDS011;59655;42.590;23.364;2023-05-07T06:32:10;14.60;;;8.95;;
71806;SDS011;59655;42.590;23.364;2023-05-07T06:34:37;10.07;;;7.40;;
71806;SDS011;59655;42.590;23.364;2023-05-07T06:37:03;15.55;;;9.13;;
71806;SDS011;59655;42.590;23.364;2023-05-07T06:39:29;18.70;;;8.65;;
71806;SDS011;59655;42.590;23.364;2023-05-07T06:41:54;14.35;;;8.18;;
71806;SDS011;59655;42.590;23.364;2023-05-07T06:44:20;14.27;;;8.38;;
71806;SDS011;59655;42.590;23.364;2023-05-07T06:46:46;13.18;;;8.30;;
71806;SDS011;59655;42.590;23.364;2023-05-07T06:49:12;14.45;;;8.75;;
71806;SDS011;59655;42.590;23.364;2023-05-07T06:51:38;14.77;;;7.90;;
71806;SDS011;59655;42.590;23.364;2023-05-07T06:54:04;13.95;;;7.95;;
71806;SDS011;59655;42.590;23.364;2023-05-07T06:56:30;13.77;;;8.18;;
71806;SDS011;59655;42.590;23.364;2023-05-07T06:58:56;12.57;;;7.88;;
71806;SDS011;59655;42.590;23.364;2023-05-07T07:01:21;11.35;;;7.80;;
71806;SDS011;59655;42.590;23.364;2023-05-07T07:03:47;15.30;;;7.82;;
71806;SDS011;59655;42.590;23.364;2023-05-07T07:06:12;12.35;;;7.95;;
71806;SDS011;59655;42.590;23.364;2023-05-07T07:08:38;13.52;;;7.93;;
71806;SDS011;59655;42.590;23.364;2023-05-07T07:11:04;12.35;;;8.02;;
71806;SDS011;59655;42.590;23.364;2023-05-07T07:13:30;11.48;;;7.55;;
71806;SDS011;59655;42.590;23.364;2023-05-07T07:15:56;15.25;;;7.82;;
71806;SDS011;59655;42.590;23.364;2023-05-07T07:18:21;13.77;;;8.27;;
71806;SDS011;59655;42.590;23.364;2023-05-07T07:20:46;11.00;;;7.38;;
71806;SDS011;59655;42.590;23.364;2023-05-07T07:23:12;9.57;;;6.65;;
71806;SDS011;59655;42.590;23.364;2023-05-07T07:25:38;10.75;;;6.85;;
71806;SDS011;59655;42.590;23.364;2023-05-07T07:28:03;12.02;;;7.15;;
71806;SDS011;59655;42.590;23.364;2023-05-07T07:30:29;11.90;;;6.90;;
71806;SDS011;59655;42.590;23.364;2023-05-07T07:32:54;11.60;;;7.00;;
71806;SDS011;59655;42.590;23.364;2023-05-07T07:35:22;13.40;;;6.88;;
71806;SDS011;59655;42.590;23.364;2023-05-07T07:37:48;10.43;;;6.97;;
71806;SDS011;59655;42.590;23.364;2023-05-07T07:40:15;11.70;;;7.00;;
71806;SDS011;59655;42.590;23.364;2023-05-07T07:42:40;14.02;;;7.30;;
71806;SDS011;59655;42.590;23.364;2023-05-07T07:45:06;10.40;;;7.07;;
71806;SDS011;59655;42.590;23.364;2023-05-07T07:47:32;11.15;;;7.45;;
71806;SDS011;59655;42.590;23.364;2023-05-07T07:49:57;12.10;;;7.47;;
71806;SDS011;59655;42.590;23.364;2023-05-07T07:52:23;11.82;;;7.60;;
71806;SDS011;59655;42.590;23.364;2023-05-07T07:54:48;14.50;;;7.30;;
71806;SDS011;59655;42.590;23.364;2023-05-07T07:57:13;11.68;;;6.40;;
71806;SDS011;59655;42.590;23.364;2023-05-07T07:59:39;10.40;;;5.88;;
71806;SDS011;59655;42.590;23.364;2023-05-07T08:02:05;10.02;;;6.05;;
71806;SDS011;59655;42.590;23.364;2023-05-07T08:04:30;9.32;;;6.57;;
71806;SDS011;59655;42.590;23.364;2023-05-07T08:06:58;11.07;;;6.32;;
71806;SDS011;59655;42.590;23.364;2023-05-07T08:09:24;9.90;;;6.88;;
71806;SDS011;59655;42.590;23.364;2023-05-07T08:11:49;12.35;;;7.38;;
71806;SDS011;59655;42.590;23.364;2023-05-07T08:14:14;13.55;;;6.75;;
71806;SDS011;59655;42.590;23.364;2023-05-07T08:16:40;12.40;;;7.10;;
71806;SDS011;59655;42.590;23.364;2023-05-07T08:19:06;12.25;;;7.45;;
71806;SDS011;59655;42.590;23.364;2023-05-07T08:21:31;13.30;;;7.28;;
71806;SDS011;59655;42.590;23.364;2023-05-07T08:23:57;12.25;;;6.78;;
71806;SDS011;59655;42.590;23.364;2023-05-07T08:26:22;12.05;;;7.32;;
71806;SDS011;59655;42.590;23.364;2023-05-07T08:28:48;15.20;;;8.23;;
71806;SDS011;59655;42.590;23.364;2023-05-07T08:31:13;12.95;;;7.63;;
71806;SDS011;59655;42.590;23.364;2023-05-07T08:33:38;10.85;;;7.45;;
71806;SDS011;59655;42.590;23.364;2023-05-07T08:36:04;15.60;;;7.93;;
71806;SDS011;59655;42.590;23.364;2023-05-07T08:38:30;15.52;;;8.10;;
71806;SDS011;59655;42.590;23.364;2023-05-07T08:40:56;12.10;;;7.45;;
71806;SDS011;59655;42.590;23.364;2023-05-07T08:43:22;12.45;;;6.40;;
71806;SDS011;59655;42.590;23.364;2023-05-07T08:45:53;13.20;;;6.78;;
71806;SDS011;59655;42.590;23.364;2023-05-07T08:48:21;15.77;;;6.82;;
71806;SDS011;59655;42.590;23.364;2023-05-07T08:50:50;14.35;;;7.15;;
71806;SDS011;59655;42.590;23.364;2023-05-07T08:53:16;10.95;;;6.93;;
71806;SDS011;59655;42.590;23.364;2023-05-07T08:55:41;9.52;;;6.28;;
71806;SDS011;59655;42.590;23.364;2023-05-07T08:58:07;11.20;;;6.80;;
71806;SDS011;59655;42.590;23.364;2023-05-07T09:00:32;14.23;;;6.20;;
71806;SDS011;59655;42.590;23.364;2023-05-07T09:02:58;11.80;;;5.85;;
71806;SDS011;59655;42.590;23.364;2023-05-07T09:05:25;10.63;;;6.70;;
71806;SDS011;59655;42.590;23.364;2023-05-07T09:07:51;8.65;;;5.55;;
71806;SDS011;59655;42.590;23.364;2023-05-07T09:10:16;10.32;;;6.18;;
71806;SDS011;59655;42.590;23.364;2023-05-07T09:12:41;10.50;;;6.55;;
71806;SDS011;59655;42.590;23.364;2023-05-07T09:15:07;7.43;;;5.43;;
71806;SDS011;59655;42.590;23.364;2023-05-07T09:17:33;9.35;;;5.60;;
71806;SDS011;59655;42.590;23.364;2023-05-07T09:20:02;11.25;;;6.10;;
71806;SDS011;59655;42.590;23.364;2023-05-07T09:22:32;13.40;;;6.22;;
71806;SDS011;59655;42.590;23.364;2023-05-07T09:24:58;10.30;;;5.93;;
71806;SDS011;59655;42.590;23.364;2023-05-07T09:27:24;13.82;;;6.80;;
71806;SDS011;59655;42.590;23.364;2023-05-07T09:29:50;10.70;;;6.60;;
71806;SDS011;59655;42.590;23.364;2023-05-07T09:32:16;9.27;;;6.55;;
71806;SDS011;59655;42.590;23.364;2023-05-07T09:34:42;8.30;;;5.05;;
71806;SDS011;59655;42.590;23.364;2023-05-07T09:37:07;9.32;;;6.07;;
71806;SDS011;59655;42.590;23.364;2023-05-07T09:39:46;9.43;;;5.72;;
71806;SDS011;59655;42.590;23.364;2023-05-07T09:42:14;9.32;;;5.03;;
71806;SDS011;59655;42.590;23.364;2023-05-07T09:44:40;8.18;;;4.22;;
71806;SDS011;59655;42.590;23.364;2023-05-07T09:47:06;9.95;;;4.90;;
71806;SDS011;59655;42.590;23.364;2023-05-07T09:49:36;8.48;;;5.18;;
71806;SDS011;59655;42.590;23.364;2023-05-07T09:52:04;8.13;;;5.38;;
71806;SDS011;59655;42.590;23.364;2023-05-07T09:54:32;9.73;;;5.20;;
71806;SDS011;59655;42.590;23.364;2023-05-07T09:56:58;7.78;;;4.53;;
71806;SDS011;59655;42.590;23.364;2023-05-07T09:59:27;6.85;;;4.53;;
71806;SDS011;59655;42.590;23.364;2023-05-07T10:01:56;8.35;;;5.60;;
71806;SDS011;59655;42.590;23.364;2023-05-07T10:04:24;7.85;;;5.60;;
71806;SDS011;59655;42.590;23.364;2023-05-07T10:06:51;9.25;;;6.43;;
71806;SDS011;59655;42.590;23.364;2023-05-07T10:09:18;12.13;;;6.75;;
71806;SDS011;59655;42.590;23.364;2023-05-07T10:11:44;10.93;;;5.90;;
71806;SDS011;59655;42.590;23.364;2023-05-07T10:14:10;8.27;;;5.63;;
71806;SDS011;59655;42.590;23.364;2023-05-07T10:16:36;9.13;;;5.47;;
71806;SDS011;59655;42.590;23.364;2023-05-07T10:19:06;6.18;;;4.57;;
71806;SDS011;59655;42.590;23.364;2023-05-07T10:21:34;8.10;;;5.35;;
71806;SDS011;59655;42.590;23.364;2023-05-07T10:24:05;9.68;;;5.40;;
71806;SDS011;59655;42.590;23.364;2023-05-07T10:26:39;9.63;;;5.30;;
71806;SDS011;59655;42.590;23.364;2023-05-07T10:29:11;13.25;;;5.70;;
71806;SDS011;59655;42.590;23.364;2023-05-07T10:31:54;9.90;;;5.60;;
71806;SDS011;59655;42.590;23.364;2023-05-07T10:34:24;10.43;;;5.63;;
71806;SDS011;59655;42.590;23.364;2023-05-07T10:36:53;13.10;;;5.95;;
71806;SDS011;59655;42.590;23.364;2023-05-07T10:39:20;10.35;;;5.88;;
71806;SDS011;59655;42.590;23.364;2023-05-07T10:41:47;10.40;;;5.82;;
71806;SDS011;59655;42.590;23.364;2023-05-07T10:44:34;10.80;;;6.10;;
71806;SDS011;59655;42.590;23.364;2023-05-07T10:47:07;9.05;;;5.70;;
71806;SDS011;59655;42.590;23.364;2023-05-07T10:50:19;9.55;;;5.47;;
71806;SDS011;59655;42.590;23.364;2023-05-07T10:52:20;10.80;;;5.75;;
71806;SDS011;59655;42.590;23.364;2023-05-07T10:55:18;12.10;;;6.82;;
71806;SDS011;59655;42.590;23.364;2023-05-07T10:57:42;12.25;;;6.80;;
71806;SDS011;59655;42.590;23.364;2023-05-07T11:05:26;9.60;;;5.82;;
71806;SDS011;59655;42.590;23.364;2023-05-07T11:07:57;11.85;;;6.43;;
71806;SDS011;59655;42.590;23.364;2023-05-07T11:10:49;10.40;;;6.40;;
71806;SDS011;59655;42.590;23.364;2023-05-07T11:13:15;11.00;;;6.63;;
71806;SDS011;59655;42.590;23.364;2023-05-07T11:15:42;11.60;;;6.43;;
71806;SDS011;59655;42.590;23.364;2023-05-07T11:18:15;11.90;;;5.90;;
71806;SDS011;59655;42.590;23.364;2023-05-07T11:26:03;9.55;;;6.88;;
71806;SDS011;59655;42.590;23.364;2023-05-07T11:28:39;12.18;;;6.32;;
71806;SDS011;59655;42.590;23.364;2023-05-07T11:31:07;11.73;;;6.45;;
71806;SDS011;59655;42.590;23.364;2023-05-07T11:33:33;8.98;;;6.00;;
71806;SDS011;59655;42.590;23.364;2023-05-07T11:36:00;10.07;;;6.18;;
71806;SDS011;59655;42.590;23.364;2023-05-07T11:38:29;11.20;;;6.38;;
71806;SDS011;59655;42.590;23.364;2023-05-07T11:40:56;11.00;;;6.57;;
71806;SDS011;59655;42.590;23.364;2023-05-07T11:43:25;8.70;;;6.47;;
71806;SDS011;59655;42.590;23.364;2023-05-07T11:45:51;11.90;;;6.43;;
71806;SDS011;59655;42.590;23.364;2023-05-07T11:48:16;11.13;;;6.75;;
71806;SDS011;59655;42.590;23.364;2023-05-07T11:50:52;10.70;;;6.93;;
71806;SDS011;59655;42.590;23.364;2023-05-07T11:53:26;10.82;;;6.05;;
71806;SDS011;59655;42.590;23.364;2023-05-07T11:55:52;9.68;;;6.60;;
71806;SDS011;59655;42.590;23.364;2023-05-07T11:58:22;9.15;;;6.43;;
71806;SDS011;59655;42.590;23.364;2023-05-07T12:00:52;10.15;;;6.43;;
71806;SDS011;59655;42.590;23.364;2023-05-07T12:03:19;11.02;;;6.25;;
71806;SDS011;59655;42.590;23.364;2023-05-07T12:05:45;10.07;;;6.07;;
71806;SDS011;59655;42.590;23.364;2023-05-07T12:08:17;9.52;;;6.03;;
71806;SDS011;59655;42.590;23.364;2023-05-07T12:10:43;8.57;;;6.78;;
71806;SDS011;59655;42.590;23.364;2023-05-07T12:13:20;10.20;;;6.47;;
71806;SDS011;59655;42.590;23.364;2023-05-07T12:15:53;10.93;;;6.22;;
71806;SDS011;59655;42.590;23.364;2023-05-07T12:18:20;9.00;;;6.28;;
71806;SDS011;59655;42.590;23.364;2023-05-07T12:20:46;10.02;;;6.00;;
71806;SDS011;59655;42.590;23.364;2023-05-07T12:23:12;10.77;;;6.15;;
71806;SDS011;59655;42.590;23.364;2023-05-07T12:25:39;7.35;;;5.82;;
71806;SDS011;59655;42.590;23.364;2023-05-07T12:28:21;7.70;;;5.80;;
71806;SDS011;59655;42.590;23.364;2023-05-07T12:30:50;9.23;;;6.05;;
71806;SDS011;59655;42.590;23.364;2023-05-07T12:33:26;11.30;;;5.75;;
71806;SDS011;59655;42.590;23.364;2023-05-07T12:35:54;7.50;;;5.13;;
71806;SDS011;59655;42.590;23.364;2023-05-07T12:40:48;7.13;;;5.47;;
71806;SDS011;59655;42.590;23.364;2023-05-07T12:43:21;11.18;;;5.80;;
71806;SDS011;59655;42.590;23.364;2023-05-07T12:45:52;11.77;;;5.55;;
71806;SDS011;59655;42.590;23.364;2023-05-07T12:48:20;9.80;;;5.65;;
71806;SDS011;59655;42.590;23.364;2023-05-07T12:50:49;7.50;;;4.97;;
71806;SDS011;59655;42.590;23.364;2023-05-07T12:53:19;12.52;;;5.38;;
71806;SDS011;59655;42.590;23.364;2023-05-07T12:55:51;9.95;;;5.25;;
71806;SDS011;59655;42.590;23.364;2023-05-07T12:58:20;8.52;;;5.20;;
71806;SDS011;59655;42.590;23.364;2023-05-07T13:00:56;7.65;;;5.43;;
71806;SDS011;59655;42.590;23.364;2023-05-07T13:03:27;9.35;;;5.07;;
71806;SDS011;59655;42.590;23.364;2023-05-07T13:05:58;7.35;;;5.28;;
71806;SDS011;59655;42.590;23.364;2023-05-07T13:08:30;6.78;;;4.50;;
71806;SDS011;59655;42.590;23.364;2023-05-07T13:11:00;7.97;;;4.93;;
71806;SDS011;59655;42.590;23.364;2023-05-07T13:13:29;8.35;;;5.13;;
71806;SDS011;59655;42.590;23.364;2023-05-07T13:15:55;7.82;;;4.68;;
71806;SDS011;59655;42.590;23.364;2023-05-07T13:18:20;8.23;;;5.35;;
71806;SDS011;59655;42.590;23.364;2023-05-07T13:20:46;7.50;;;4.80;;
71806;SDS011;59655;42.590;23.364;2023-05-07T13:23:11;9.45;;;4.60;;
71806;SDS011;59655;42.590;23.364;2023-05-07T13:25:37;6.90;;;4.95;;
71806;SDS011;59655;42.590;23.364;2023-05-07T13:28:02;8.98;;;4.43;;
71806;SDS011;59655;42.590;23.364;2023-05-07T13:30:29;7.97;;;4.45;;
71806;SDS011;59655;42.590;23.364;2023-05-07T13:32:55;6.75;;;4.53;;
71806;SDS011;59655;42.590;23.364;2023-05-07T13:35:21;7.60;;;5.20;;
71806;SDS011;59655;42.590;23.364;2023-05-07T13:37:47;7.05;;;5.00;;
71806;SDS011;59655;42.590;23.364;2023-05-07T13:40:14;7.07;;;4.75;;
71806;SDS011;59655;42.590;23.364;2023-05-07T13:42:40;6.82;;;5.05;;
71806;SDS011;59655;42.590;23.364;2023-05-07T13:45:08;6.22;;;4.72;;
71806;SDS011;59655;42.590;23.364;2023-05-07T13:47:41;6.63;;;4.80;;
71806;SDS011;59655;42.590;23.364;2023-05-07T13:50:08;7.35;;;5.15;;
71806;SDS011;59655;42.590;23.364;2023-05-07T13:52:34;7.45;;;5.13;;
71806;SDS011;59655;42.590;23.364;2023-05-07T13:54:59;8.40;;;5.13;;
71806;SDS011;59655;42.590;23.364;2023-05-07T13:57:25;6.45;;;4.57;;
71806;SDS011;59655;42.590;23.364;2023-05-07T13:59:50;10.55;;;4.82;;
71806;SDS011;59655;42.590;23.364;2023-05-07T14:02:17;10.15;;;4.35;;
71806;SDS011;59655;42.590;23.364;2023-05-07T14:04:42;7.82;;;4.53;;
71806;SDS011;59655;42.590;23.364;2023-05-07T14:07:08;9.13;;;4.72;;
71806;SDS011;59655;42.590;23.364;2023-05-07T14:09:33;7.32;;;5.05;;
71806;SDS011;59655;42.590;23.364;2023-05-07T14:11:59;5.47;;;4.68;;
71806;SDS011;59655;42.590;23.364;2023-05-07T14:14:24;7.32;;;4.80;;
71806;SDS011;59655;42.590;23.364;2023-05-07T14:16:49;7.05;;;5.00;;
71806;SDS011;59655;42.590;23.364;2023-05-07T14:19:15;8.35;;;4.18;;
71806;SDS011;59655;42.590;23.364;2023-05-07T14:21:40;8.98;;;4.40;;
71806;SDS011;59655;42.590;23.364;2023-05-07T14:24:06;7.40;;;4.13;;
71806;SDS011;59655;42.590;23.364;2023-05-07T14:26:33;5.65;;;4.05;;
71806;SDS011;59655;42.590;23.364;2023-05-07T14:28:59;5.72;;;3.85;;
71806;SDS011;59655;42.590;23.364;2023-05-07T14:31:24;6.18;;;4.10;;
71806;SDS011;59655;42.590;23.364;2023-05-07T14:33:50;6.65;;;4.05;;
71806;SDS011;59655;42.590;23.364;2023-05-07T14:36:16;8.25;;;4.03;;
71806;SDS011;59655;42.590;23.364;2023-05-07T14:38:44;5.75;;;3.63;;